createdAt,value
2023-04-04T00:02:21.092Z,5.20
2023-04-04T00:04:49.550Z,6.50
2023-04-04T00:07:19.517Z,3.70
2023-04-04T00:09:48.052Z,6.30
2023-04-04T00:12:16.452Z,7.47
2023-04-04T00:14:45.031Z,5.00
2023-04-04T00:17:13.376Z,5.63
2023-04-04T00:19:41.742Z,8.70
2023-04-04T00:22:10.124Z,8.63
2023-04-04T00:24:39.922Z,8.53
2023-04-04T00:27:08.241Z,5.10
2023-04-04T00:29:37.595Z,7.50
2023-04-04T00:32:06.067Z,5.03
2023-04-04T00:34:36.538Z,6.33
2023-04-04T00:37:07.521Z,5.20
2023-04-04T00:39:35.895Z,8.00
2023-04-04T00:42:06.421Z,5.50
2023-04-04T00:44:35.792Z,4.40
2023-04-04T00:47:05.591Z,12.00
2023-04-04T00:49:34.717Z,6.47
2023-04-04T00:52:03.267Z,6.07
2023-04-04T00:54:32.087Z,5.80
2023-04-04T00:57:00.573Z,8.27
2023-04-04T00:59:30.570Z,4.73
2023-04-04T01:02:00.204Z,5.00
2023-04-04T01:04:31.849Z,7.03
2023-04-04T01:07:04.846Z,4.80
2023-04-04T01:09:34.598Z,4.73
2023-04-04T01:12:05.197Z,6.60
2023-04-04T01:14:36.864Z,10.33
2023-04-04T01:17:07.675Z,4.30
2023-04-04T01:19:40.430Z,8.77
2023-04-04T01:22:11.349Z,6.23
2023-04-04T01:24:46.694Z,6.47
2023-04-04T01:27:17.090Z,6.17
2023-04-04T01:29:45.840Z,5.20
2023-04-04T01:32:28.225Z,10.63
2023-04-04T01:35:04.297Z,4.80
2023-04-04T01:37:38.032Z,7.07
2023-04-04T01:40:13.953Z,5.60
2023-04-04T01:42:46.131Z,6.33
2023-04-04T01:45:15.037Z,5.63
2023-04-04T01:47:44.615Z,4.80
2023-04-04T01:50:13.716Z,12.20
2023-04-04T01:52:42.542Z,4.63
2023-04-04T01:55:11.863Z,3.87
2023-04-04T01:57:40.741Z,4.40
2023-04-04T02:00:12.357Z,4.30
2023-04-04T02:02:41.468Z,8.70
2023-04-04T02:05:10.624Z,7.53
2023-04-04T02:07:42.361Z,10.23
2023-04-04T02:10:11.379Z,5.67
2023-04-04T02:12:40.190Z,11.00
2023-04-04T02:15:11.651Z,11.77
2023-04-04T02:17:42.226Z,11.47
2023-04-04T02:20:13.110Z,8.57
2023-04-04T02:22:47.833Z,9.73
2023-04-04T02:25:17.886Z,10.40
2023-04-04T02:27:46.298Z,6.97
2023-04-04T02:30:17.376Z,8.80
2023-04-04T02:32:47.414Z,10.60
2023-04-04T02:35:18.139Z,7.30
2023-04-04T02:37:48.258Z,7.40
2023-04-04T02:40:17.724Z,7.40
2023-04-04T02:42:46.683Z,8.57
2023-04-04T02:45:17.785Z,6.93
2023-04-04T02:47:54.703Z,13.23
2023-04-04T02:50:24.196Z,8.70
2023-04-04T02:52:55.495Z,10.70
2023-04-04T02:55:25.241Z,8.73
2023-04-04T02:57:55.397Z,11.17
2023-04-04T03:00:33.279Z,6.80
2023-04-04T03:03:01.854Z,9.87
2023-04-04T03:05:32.012Z,11.63
2023-04-04T03:08:01.234Z,6.87
2023-04-04T03:10:31.358Z,11.00
2023-04-04T03:13:00.243Z,8.00
2023-04-04T03:15:31.032Z,10.77
2023-04-04T03:18:00.460Z,9.80
2023-04-04T03:20:29.291Z,9.67
2023-04-04T03:22:57.923Z,7.07
2023-04-04T03:25:26.814Z,12.70
2023-04-04T03:27:55.514Z,14.43
2023-04-04T03:30:24.438Z,7.97
2023-04-04T03:32:55.667Z,9.50
2023-04-04T03:35:24.676Z,10.13
2023-04-04T03:37:55.041Z,13.07
2023-04-04T03:40:24.484Z,13.60
2023-04-04T03:42:52.802Z,9.90
2023-04-04T03:45:21.973Z,8.03
2023-04-04T03:47:50.727Z,11.87
2023-04-04T03:50:21.347Z,15.37
2023-04-04T03:52:50.490Z,13.87
2023-04-04T03:55:19.621Z,7.63
2023-04-04T03:57:48.897Z,10.60
2023-04-04T04:00:18.025Z,10.77
2023-04-04T04:02:47.304Z,11.73
2023-04-04T04:05:16.341Z,7.90
2023-04-04T04:07:47.067Z,10.53
2023-04-04T04:10:17.651Z,8.30
2023-04-04T04:13:01.177Z,8.43
2023-04-04T04:15:30.316Z,8.53
2023-04-04T04:17:59.483Z,12.70
2023-04-04T04:20:28.746Z,6.57
2023-04-04T04:22:59.009Z,12.03
2023-04-04T04:25:27.614Z,9.50
2023-04-04T04:27:58.418Z,13.33
2023-04-04T04:30:27.362Z,9.10
2023-04-04T04:32:56.534Z,9.60
2023-04-04T04:35:27.732Z,8.83
2023-04-04T04:38:00.147Z,7.50
2023-04-04T04:40:29.469Z,7.73
2023-04-04T04:42:59.116Z,7.70
2023-04-04T04:45:29.880Z,9.80
2023-04-04T04:47:59.780Z,6.97
2023-04-04T04:50:29.606Z,11.00
2023-04-04T04:53:02.622Z,13.03
2023-04-04T04:55:39.557Z,14.73
2023-04-04T04:58:08.150Z,16.70
2023-04-04T05:00:36.772Z,9.73
2023-04-04T05:03:07.057Z,10.13
2023-04-04T05:05:36.653Z,16.53
2023-04-04T05:08:08.673Z,14.87
2023-04-04T05:10:39.501Z,13.00
2023-04-04T05:13:10.468Z,18.03
2023-04-04T05:15:39.633Z,8.40
2023-04-04T05:18:08.662Z,7.00
2023-04-04T05:20:39.030Z,9.63
2023-04-04T05:23:09.344Z,10.63
2023-04-04T05:25:40.582Z,13.23
2023-04-04T05:28:09.740Z,12.47
2023-04-04T05:30:39.516Z,15.80
2023-04-04T05:33:08.454Z,12.00
2023-04-04T05:35:38.353Z,13.90
2023-04-04T05:38:09.464Z,6.67
2023-04-04T05:40:38.398Z,9.20
2023-04-04T05:43:07.478Z,11.40
2023-04-04T05:45:35.913Z,10.93
2023-04-04T05:48:05.345Z,9.87
2023-04-04T05:50:33.792Z,12.00
2023-04-04T05:53:03.053Z,14.90
2023-04-04T05:55:32.785Z,15.93
2023-04-04T05:58:01.500Z,13.43
2023-04-04T06:00:29.994Z,8.90
2023-04-04T06:02:58.871Z,13.67
2023-04-04T06:05:27.386Z,16.27
2023-04-04T06:07:55.758Z,12.17
2023-04-04T06:10:24.507Z,15.03
2023-04-04T06:12:54.288Z,9.80
2023-04-04T06:15:22.650Z,9.90
2023-04-04T06:17:51.051Z,10.73
2023-04-04T06:20:22.715Z,10.33
2023-04-04T06:22:51.055Z,10.13
2023-04-04T06:25:19.707Z,20.07
2023-04-04T06:27:48.053Z,13.33
2023-04-04T06:30:19.282Z,16.50
2023-04-04T06:32:47.695Z,12.20
2023-04-04T06:35:18.202Z,17.13
2023-04-04T06:37:48.381Z,12.20
2023-04-04T06:40:17.926Z,14.60
2023-04-04T06:42:52.416Z,11.83
2023-04-04T06:45:22.161Z,10.03
2023-04-04T06:47:51.941Z,10.00
2023-04-04T06:50:21.181Z,9.77
2023-04-04T06:52:50.078Z,14.60
2023-04-04T06:55:18.959Z,15.20
2023-04-04T06:57:47.442Z,11.73
2023-04-04T07:00:17.004Z,9.77
2023-04-04T07:02:47.009Z,10.30
2023-04-04T07:05:18.089Z,14.23
2023-04-04T07:07:48.513Z,11.40
2023-04-04T07:10:16.973Z,11.20
2023-04-04T07:12:46.193Z,9.27
2023-04-04T07:15:14.629Z,12.23
2023-04-04T07:17:43.021Z,14.90
2023-04-04T07:20:13.748Z,15.73
2023-04-04T07:22:44.496Z,15.03
2023-04-04T07:25:14.116Z,16.53
2023-04-04T07:27:42.614Z,11.37
2023-04-04T07:30:12.371Z,12.13
2023-04-04T07:32:40.990Z,20.97
2023-04-04T07:35:10.305Z,17.67
2023-04-04T07:37:42.268Z,16.90
2023-04-04T07:40:11.930Z,28.53
2023-04-04T07:42:45.775Z,10.63
2023-04-04T07:45:14.324Z,10.10
2023-04-04T07:47:45.386Z,15.80
2023-04-04T07:50:14.147Z,11.90
2023-04-04T07:52:44.169Z,14.20
2023-04-04T07:55:13.354Z,20.20
2023-04-04T07:57:42.582Z,17.53
2023-04-04T08:00:12.007Z,19.73
2023-04-04T08:02:41.454Z,22.97
2023-04-04T08:05:10.924Z,27.43
2023-04-04T08:07:39.347Z,28.30
2023-04-04T08:10:10.839Z,19.43
2023-04-04T08:12:39.994Z,17.27
2023-04-04T08:15:09.112Z,22.00
2023-04-04T08:17:38.637Z,15.63
2023-04-04T08:20:08.230Z,10.30
2023-04-04T08:22:36.542Z,10.47
2023-04-04T08:25:05.890Z,11.37
2023-04-04T08:27:35.699Z,19.40
2023-04-04T08:30:04.992Z,15.90
2023-04-04T08:32:33.524Z,16.33
2023-04-04T08:35:03.780Z,15.73
2023-04-04T08:37:32.299Z,18.63
2023-04-04T08:40:00.701Z,11.70
2023-04-04T08:42:30.007Z,19.77
2023-04-04T08:45:04.402Z,10.90
2023-04-04T08:47:35.851Z,12.10
2023-04-04T08:50:06.806Z,18.90
2023-04-04T08:52:36.523Z,15.77
2023-04-04T08:55:06.746Z,13.83
2023-04-04T08:57:35.831Z,16.43
2023-04-04T09:00:07.406Z,16.90
2023-04-04T09:02:41.511Z,10.10
2023-04-04T09:05:11.014Z,15.83
2023-04-04T09:07:40.038Z,22.50
2023-04-04T09:10:12.906Z,16.57
2023-04-04T09:12:43.894Z,15.50
2023-04-04T09:15:14.655Z,13.30
2023-04-04T09:17:43.163Z,12.80
2023-04-04T09:23:29.346Z,17.63
2023-04-04T09:28:29.608Z,12.87
2023-04-04T09:31:02.396Z,12.53
2023-04-04T09:33:32.169Z,21.57
2023-04-04T09:36:03.693Z,19.90
2023-04-04T09:38:32.568Z,12.10
2023-04-04T09:41:01.202Z,15.73
2023-04-04T09:43:32.319Z,17.17
2023-04-04T09:46:05.849Z,15.00
2023-04-04T09:48:37.149Z,15.60
2023-04-04T09:51:07.002Z,25.83
2023-04-04T09:53:39.987Z,19.40
2023-04-04T09:56:09.236Z,19.07
2023-04-04T09:58:46.404Z,17.77
2023-04-04T10:01:22.871Z,18.50
2023-04-04T10:03:53.953Z,30.33
2023-04-04T10:06:22.692Z,15.77
2023-04-04T10:08:51.696Z,14.30
2023-04-04T10:11:35.766Z,18.50
2023-04-04T10:14:05.538Z,18.83
2023-04-04T10:16:37.987Z,20.63
2023-04-04T10:19:08.840Z,19.90
2023-04-04T10:21:37.415Z,15.00
2023-04-04T10:24:10.199Z,20.53
2023-04-04T10:26:38.815Z,22.63
2023-04-04T10:29:07.206Z,20.47
2023-04-04T10:31:43.202Z,18.23
2023-04-04T10:34:16.477Z,19.10
2023-04-04T10:36:47.746Z,13.23
2023-04-04T10:39:19.305Z,20.60
2023-04-04T10:41:50.485Z,14.80
2023-04-04T10:44:25.434Z,23.70
2023-04-04T10:46:56.723Z,27.90
2023-04-04T10:49:25.757Z,22.43
2023-04-04T10:51:57.433Z,19.27
2023-04-04T10:54:29.293Z,16.53
2023-04-04T10:57:02.294Z,21.73
2023-04-04T10:59:31.140Z,20.17
2023-04-04T11:02:03.307Z,16.63
2023-04-04T11:04:35.715Z,26.17
2023-04-04T11:07:21.862Z,19.57
2023-04-04T11:09:57.830Z,19.03
2023-04-04T11:12:30.553Z,24.43
2023-04-04T11:15:11.074Z,29.40
2023-04-04T11:17:45.366Z,15.47
2023-04-04T11:20:18.310Z,32.17
2023-04-04T11:22:47.157Z,19.27
2023-04-04T11:25:33.775Z,15.53
2023-04-04T11:28:10.836Z,22.33
2023-04-04T11:30:44.953Z,19.87
2023-04-04T11:33:15.583Z,24.37
2023-04-04T11:35:49.010Z,26.73
2023-04-04T11:38:17.833Z,27.07
2023-04-04T11:40:56.487Z,15.30
2023-04-04T11:43:25.733Z,33.67
2023-04-04T11:45:55.575Z,23.43
2023-04-04T11:48:25.437Z,17.77
2023-04-04T11:50:54.938Z,28.97
2023-04-04T11:53:23.291Z,27.93
2023-04-04T11:55:53.073Z,26.57
2023-04-04T11:58:21.521Z,23.73
2023-04-04T12:00:50.767Z,26.33
2023-04-04T12:03:19.369Z,12.50
2023-04-04T12:05:51.050Z,29.60
2023-04-04T12:08:19.550Z,21.97
2023-04-04T12:10:47.844Z,21.43
2023-04-04T12:13:16.547Z,26.30
2023-04-04T12:15:45.299Z,30.20
2023-04-04T12:18:23.292Z,30.20
2023-04-04T12:20:54.312Z,17.30
2023-04-04T12:23:23.853Z,19.57
2023-04-04T12:25:55.017Z,18.40
2023-04-04T12:28:24.052Z,26.77
2023-04-04T12:30:53.716Z,24.97
2023-04-04T12:33:22.996Z,17.90
2023-04-04T12:35:56.562Z,28.13
2023-04-04T12:38:25.026Z,19.30
2023-04-04T12:40:53.723Z,22.40
2023-04-04T12:43:22.140Z,26.00
2023-04-04T12:45:52.695Z,24.20
2023-04-04T12:48:22.936Z,18.50
2023-04-04T12:50:56.920Z,25.60
2023-04-04T12:53:29.555Z,23.57
2023-04-04T12:56:02.868Z,33.00
2023-04-04T12:58:34.844Z,24.53
2023-04-04T13:01:05.339Z,22.40
2023-04-04T13:03:37.909Z,21.37
2023-04-04T13:06:15.291Z,24.77
2023-04-04T13:08:54.377Z,15.30
2023-04-04T13:11:23.872Z,24.10
2023-04-04T13:14:02.772Z,22.33
2023-04-04T13:16:33.171Z,19.23
2023-04-04T13:19:01.739Z,27.97
2023-04-04T13:21:32.554Z,17.53
2023-04-04T13:24:04.210Z,22.50
2023-04-04T13:26:32.628Z,31.47
2023-04-04T13:29:00.937Z,15.10
2023-04-04T13:31:29.395Z,23.30
2023-04-04T13:33:57.812Z,20.13
2023-04-04T13:36:28.470Z,16.07
2023-04-04T13:38:58.387Z,19.00
2023-04-04T13:41:26.720Z,19.03
2023-04-04T13:43:56.681Z,24.90
2023-04-04T13:46:25.900Z,19.27
2023-04-04T13:48:54.251Z,23.90
2023-04-04T13:51:24.529Z,19.43
2023-04-04T13:53:52.872Z,27.27
2023-04-04T13:56:23.291Z,17.37
2023-04-04T13:58:52.490Z,33.47
2023-04-04T14:01:22.664Z,27.10
2023-04-04T14:03:51.414Z,27.70
2023-04-04T14:06:20.080Z,17.73
2023-04-04T14:08:48.437Z,20.67
2023-04-04T14:11:17.292Z,24.70
2023-04-04T14:13:47.397Z,24.87
2023-04-04T14:16:16.369Z,29.67
2023-04-04T14:18:45.182Z,21.83
2023-04-04T14:21:13.674Z,26.80
2023-04-04T14:23:42.076Z,33.60
2023-04-04T14:26:10.556Z,24.70
2023-04-04T14:28:39.092Z,29.20
2023-04-04T14:31:08.876Z,33.43
2023-04-04T14:33:37.390Z,31.17
2023-04-04T14:36:06.419Z,31.47
2023-04-04T14:38:34.870Z,24.00
2023-04-04T14:41:03.496Z,30.67
2023-04-04T14:43:32.135Z,20.20
2023-04-04T14:46:00.670Z,26.57
2023-04-04T14:48:30.520Z,19.57
2023-04-04T14:51:00.598Z,22.87
2023-04-04T14:53:29.051Z,22.70
2023-04-04T14:55:57.445Z,31.10
2023-04-04T14:58:25.885Z,26.27
2023-04-04T15:00:54.418Z,19.63
2023-04-04T15:03:22.946Z,17.93
2023-04-04T15:05:52.990Z,23.97
2023-04-04T15:08:21.561Z,35.77
2023-04-04T15:10:50.215Z,24.77
2023-04-04T15:13:18.577Z,18.10
2023-04-04T15:15:47.078Z,21.67
2023-04-04T15:18:15.876Z,25.03
2023-04-04T15:20:44.508Z,20.17
2023-04-04T15:23:14.406Z,23.70
2023-04-04T15:25:42.779Z,23.37
2023-04-04T15:28:11.152Z,21.23
2023-04-04T15:30:40.303Z,17.37
2023-04-04T15:33:09.681Z,18.53
2023-04-04T15:35:38.289Z,18.73
2023-04-04T15:38:06.878Z,31.00
2023-04-04T15:40:36.970Z,18.07
2023-04-04T15:43:05.542Z,30.93
2023-04-04T15:45:33.929Z,25.60
2023-04-04T15:48:03.141Z,36.10
2023-04-04T15:50:31.533Z,32.43
2023-04-04T15:53:00.237Z,27.33
2023-04-04T15:55:29.073Z,22.70
2023-04-04T15:57:58.944Z,17.20
2023-04-04T16:00:29.284Z,22.37
2023-04-04T16:02:59.043Z,15.00
2023-04-04T16:05:28.494Z,17.07
2023-04-04T16:07:57.001Z,25.17
2023-04-04T16:10:25.379Z,32.20
2023-04-04T16:12:53.796Z,19.77
2023-04-04T16:15:23.801Z,20.93
2023-04-04T16:17:53.942Z,14.90
2023-04-04T16:20:23.728Z,22.33
2023-04-04T16:22:54.001Z,15.33
2023-04-04T16:25:23.422Z,27.17
2023-04-04T16:27:51.969Z,23.10
2023-04-04T16:30:20.537Z,21.30
2023-04-04T16:32:51.029Z,26.37
2023-04-04T16:35:19.714Z,29.80
2023-04-04T16:37:48.248Z,28.60
2023-04-04T16:40:16.725Z,17.13
2023-04-04T16:42:45.057Z,20.07
2023-04-04T16:45:13.841Z,18.30
2023-04-04T16:47:42.235Z,27.70
2023-04-04T16:50:12.929Z,23.03
2023-04-04T16:52:41.469Z,30.80
2023-04-04T16:55:10.528Z,28.77
2023-04-04T16:57:38.878Z,30.17
2023-04-04T17:00:10.151Z,33.60
2023-04-04T17:02:45.345Z,26.50
2023-04-04T17:05:15.913Z,23.50
2023-04-04T17:07:44.277Z,24.50
2023-04-04T17:10:13.521Z,34.40
2023-04-04T17:12:42.015Z,27.77
2023-04-04T17:15:11.136Z,32.80
2023-04-04T17:17:39.645Z,24.97
2023-04-04T17:20:08.864Z,23.63
2023-04-04T17:22:38.697Z,20.93
2023-04-04T17:25:08.938Z,23.03
2023-04-04T17:27:37.507Z,18.73
2023-04-04T17:30:08.513Z,20.53
2023-04-04T17:32:37.404Z,12.73
2023-04-04T17:35:07.022Z,17.13
2023-04-04T17:37:35.393Z,23.07
2023-04-04T17:40:05.770Z,12.63
2023-04-04T17:42:34.628Z,17.20
2023-04-04T17:45:03.023Z,11.37
2023-04-04T17:47:31.469Z,7.17
2023-04-04T17:49:59.837Z,10.07
2023-04-04T17:52:28.287Z,3.33
2023-04-04T17:54:56.626Z,7.37
2023-04-04T17:57:26.535Z,7.40
2023-04-04T17:59:55.088Z,3.10
2023-04-04T18:02:23.462Z,6.63
2023-04-04T18:04:52.691Z,4.47
2023-04-04T18:07:21.254Z,5.17
2023-04-04T18:09:49.621Z,5.00
2023-04-04T18:12:18.284Z,4.70
2023-04-04T18:14:48.284Z,5.53
2023-04-04T18:17:16.812Z,5.20
2023-04-04T18:19:46.634Z,3.43
2023-04-04T18:22:15.038Z,5.93
2023-04-04T18:24:43.600Z,3.20
2023-04-04T18:27:12.250Z,7.10
2023-04-04T18:29:41.466Z,5.43
2023-04-04T18:32:11.278Z,8.03
2023-04-04T18:34:39.832Z,5.43
2023-04-04T18:37:08.252Z,3.30
2023-04-04T18:39:36.650Z,3.10
2023-04-04T18:42:05.398Z,4.60
2023-04-04T18:44:33.986Z,4.10
2023-04-04T18:47:05.326Z,4.10
2023-04-04T18:49:35.720Z,3.50
2023-04-04T18:52:04.108Z,3.10
2023-04-04T18:54:32.686Z,4.43
2023-04-04T18:57:01.085Z,3.07
2023-04-04T18:59:30.908Z,3.77
2023-04-04T19:02:00.978Z,5.80
2023-04-04T19:04:30.659Z,3.83
2023-04-04T19:07:06.190Z,3.87
2023-04-04T19:09:35.203Z,7.60
2023-04-04T19:12:04.069Z,4.27
2023-04-04T19:14:32.512Z,3.97
2023-04-04T19:17:00.947Z,3.97
2023-04-04T19:19:29.366Z,4.40
2023-04-04T19:21:57.831Z,5.33
2023-04-04T19:24:27.711Z,4.60
2023-04-04T19:26:56.037Z,4.90
2023-04-04T19:29:24.445Z,3.03
2023-04-04T19:31:55.588Z,3.67
2023-04-04T19:34:24.144Z,2.90
2023-04-04T19:36:52.462Z,7.43
2023-04-04T19:39:21.432Z,4.13
2023-04-04T19:41:51.512Z,2.47
2023-04-04T19:44:21.460Z,3.40
2023-04-04T19:46:50.403Z,7.37
2023-04-04T19:49:19.393Z,3.73
2023-04-04T19:51:52.494Z,2.63
2023-04-04T19:54:26.124Z,3.10
2023-04-04T19:57:01.168Z,3.43
2023-04-04T20:00:05.315Z,4.90
2023-04-04T20:02:50.827Z,4.10
2023-04-04T20:06:04.109Z,3.60
2023-04-04T20:08:44.395Z,4.30
2023-04-04T20:11:13.934Z,4.80
2023-04-04T20:13:44.723Z,3.90
2023-04-04T20:16:15.241Z,3.37
2023-04-04T20:18:44.864Z,4.40
2023-04-04T20:21:15.567Z,4.97
2023-04-04T20:23:49.552Z,6.83
2023-04-04T20:26:44.025Z,3.40
2023-04-04T20:29:16.150Z,3.57
2023-04-04T20:31:59.367Z,3.47
2023-04-04T20:34:50.710Z,2.70
2023-04-04T20:37:23.539Z,7.53
2023-04-04T20:39:55.289Z,3.57
2023-04-04T20:42:40.543Z,2.90
2023-04-04T20:45:42.375Z,3.00
2023-04-04T20:48:38.077Z,2.40
2023-04-04T20:51:28.919Z,3.57
2023-04-04T20:53:58.815Z,3.03
2023-04-04T20:56:52.609Z,3.00
2023-04-04T20:59:38.387Z,3.50
2023-04-04T21:02:20.741Z,2.57
2023-04-04T21:04:52.148Z,2.33
2023-04-04T21:07:40.979Z,2.70
2023-04-04T21:10:25.768Z,3.23
2023-04-04T21:12:54.766Z,2.97
2023-04-04T21:15:24.867Z,2.77
2023-04-04T21:17:54.678Z,2.80
2023-04-04T21:21:03.176Z,3.50
2023-04-04T21:23:34.341Z,2.83
2023-04-04T21:26:04.451Z,4.37
2023-04-04T21:28:35.298Z,3.80
2023-04-04T21:31:08.020Z,2.83
2023-04-04T21:33:38.358Z,4.27
2023-04-04T21:36:12.466Z,3.20
2023-04-04T21:38:40.895Z,3.30
2023-04-04T21:41:17.369Z,3.33
2023-04-04T21:43:45.760Z,8.20
2023-04-04T21:46:14.521Z,3.23
2023-04-04T21:48:49.046Z,4.03
2023-04-04T21:51:19.394Z,8.30
2023-04-04T21:53:48.114Z,3.57
2023-04-04T21:56:17.504Z,2.80
2023-04-04T21:58:46.235Z,3.30
2023-04-04T22:01:14.664Z,2.40
2023-04-04T22:03:44.534Z,3.20
2023-04-04T22:06:13.138Z,2.10
2023-04-04T22:08:41.758Z,3.33
2023-04-04T22:11:13.697Z,5.10
2023-04-04T22:13:47.255Z,3.27
2023-04-04T22:16:17.502Z,3.57
2023-04-04T22:18:52.057Z,6.80
2023-04-04T22:21:25.985Z,3.40
2023-04-04T22:23:55.103Z,3.20
2023-04-04T22:26:32.641Z,5.70
2023-04-04T22:29:01.728Z,2.80
2023-04-04T22:31:30.186Z,5.63
2023-04-04T22:34:00.148Z,3.03
2023-04-04T22:36:28.540Z,3.50
2023-04-04T22:38:58.235Z,2.80
2023-04-04T22:41:28.850Z,2.90
2023-04-04T22:43:58.038Z,3.20
2023-04-04T22:46:29.318Z,5.27
2023-04-04T22:49:06.758Z,2.90
2023-04-04T22:51:45.673Z,2.50
2023-04-04T22:54:16.597Z,2.50
2023-04-04T22:56:45.510Z,2.33
2023-04-04T22:59:14.253Z,2.47
2023-04-04T23:01:42.826Z,2.50
2023-04-04T23:04:12.776Z,2.20
2023-04-04T23:06:41.381Z,2.57
2023-04-04T23:09:09.712Z,1.80
2023-04-04T23:11:39.127Z,5.30
2023-04-04T23:14:09.227Z,3.47
2023-04-04T23:16:38.109Z,2.87
2023-04-04T23:19:06.531Z,5.10
2023-04-04T23:21:36.775Z,1.90
2023-04-04T23:24:06.220Z,1.87
2023-04-04T23:26:35.107Z,2.40
2023-04-04T23:29:04.386Z,2.10
2023-04-04T23:31:32.888Z,2.30
2023-04-04T23:34:01.335Z,2.00
2023-04-04T23:36:29.757Z,2.60
2023-04-04T23:38:59.590Z,2.00
2023-04-04T23:41:28.234Z,1.83
2023-04-04T23:43:56.686Z,2.30
2023-04-04T23:46:26.308Z,1.63
2023-04-04T23:48:54.732Z,1.67
2023-04-04T23:51:23.651Z,1.80
2023-04-04T23:53:51.963Z,2.47
2023-04-04T23:56:21.659Z,1.73
2023-04-04T23:58:50.235Z,2.37
